createdAt,value
2018-04-12T00:02:17.539Z,12.44
2018-04-12T00:07:20.098Z,12.33
2018-04-12T00:12:22.588Z,12.31
2018-04-12T00:17:25.097Z,12.18
2018-04-12T00:22:27.573Z,12.15
2018-04-12T00:27:30.062Z,12.15
2018-04-12T00:32:32.556Z,12.16
2018-04-12T00:37:35.186Z,12.06
2018-04-12T00:42:37.697Z,12.07
2018-04-12T00:47:40.182Z,12.05
2018-04-12T00:52:42.769Z,11.96
2018-04-12T00:57:45.469Z,11.93
2018-04-12T01:02:48.087Z,11.85
2018-04-12T01:07:51.309Z,11.77
2018-04-12T01:12:53.855Z,11.76
2018-04-12T01:17:56.342Z,11.75
2018-04-12T01:22:58.868Z,11.58
2018-04-12T01:28:01.468Z,11.62
2018-04-12T01:33:22.834Z,11.50
2018-04-12T01:38:25.393Z,11.30
2018-04-12T01:43:27.867Z,11.39
2018-04-12T01:48:30.390Z,11.37
2018-04-12T01:53:32.887Z,11.41
2018-04-12T01:58:35.354Z,11.23
2018-04-12T02:03:37.889Z,11.21
2018-04-12T02:08:40.359Z,11.14
2018-04-12T02:13:42.922Z,11.14
2018-04-12T02:18:45.446Z,11.14
2018-04-12T02:23:50.139Z,11.08
2018-04-12T02:28:52.787Z,11.02
2018-04-12T02:33:55.263Z,11.02
2018-04-12T02:38:57.757Z,11.10
2018-04-12T02:44:00.233Z,10.95
2018-04-12T02:49:02.709Z,10.91
2018-04-12T02:54:05.200Z,10.99
2018-04-12T02:59:07.667Z,11.09
2018-04-12T03:04:10.163Z,11.01
2018-04-12T03:09:13.517Z,10.88
2018-04-12T03:14:16.230Z,10.90
2018-04-12T03:19:19.323Z,10.86
2018-04-12T03:24:21.882Z,10.78
2018-04-12T03:29:24.380Z,10.75
2018-04-12T03:34:26.867Z,10.66
2018-04-12T03:39:29.371Z,10.61
2018-04-12T03:44:31.872Z,10.70
2018-04-12T03:49:34.463Z,10.63
2018-04-12T03:54:37.127Z,10.65
2018-04-12T03:59:39.656Z,10.59
2018-04-12T04:04:42.301Z,10.52
2018-04-12T04:09:44.985Z,10.41
2018-04-12T04:20:34.724Z,10.40
2018-04-12T04:25:37.255Z,10.49
2018-04-12T04:30:39.712Z,10.53
2018-04-12T04:35:42.311Z,10.58
2018-04-12T04:40:44.920Z,10.59
2018-04-12T04:45:47.548Z,10.66
2018-04-12T04:50:50.092Z,10.71
2018-04-12T04:55:52.641Z,10.83
2018-04-12T05:00:55.102Z,10.95
2018-04-12T05:05:57.864Z,11.13
2018-04-12T05:11:00.337Z,11.23
2018-04-12T05:16:02.837Z,11.37
2018-04-12T05:21:05.316Z,11.54
2018-04-12T05:26:07.852Z,12.08
2018-04-12T05:31:10.349Z,12.84
2018-04-12T05:36:12.934Z,13.72
2018-04-12T05:41:16.496Z,14.41
2018-04-12T05:46:19.027Z,15.04
2018-04-12T05:51:21.566Z,15.00
2018-04-12T05:56:24.158Z,15.25
2018-04-12T06:01:26.637Z,16.51
2018-04-12T06:06:29.091Z,16.57
2018-04-12T06:11:31.632Z,16.94
2018-04-12T06:16:34.127Z,16.02
2018-04-12T06:21:36.597Z,14.02
2018-04-12T06:26:39.069Z,13.80
2018-04-12T06:31:41.779Z,13.31
2018-04-12T06:36:45.479Z,13.42
2018-04-12T06:41:48.054Z,13.28
2018-04-12T06:46:50.670Z,13.28
2018-04-12T06:51:54.189Z,13.31
2018-04-12T06:56:57.000Z,13.50
2018-04-12T07:01:59.658Z,13.60
2018-04-12T07:07:02.131Z,13.39
2018-04-12T07:12:04.632Z,13.61
2018-04-12T07:17:07.106Z,13.63
2018-04-12T07:22:09.553Z,13.84
2018-04-12T07:27:12.059Z,14.37
2018-04-12T07:32:14.567Z,15.05
2018-04-12T07:37:17.095Z,15.25
2018-04-12T07:42:19.630Z,15.81
2018-04-12T07:47:22.282Z,15.81
2018-04-12T07:52:24.805Z,15.92
2018-04-12T07:57:27.275Z,15.72
2018-04-12T08:02:29.766Z,15.88
2018-04-12T08:07:32.281Z,16.83
2018-04-12T08:12:34.793Z,16.77
2018-04-12T08:17:38.358Z,16.83
2018-04-12T08:22:40.887Z,16.54
2018-04-12T08:27:43.460Z,16.62
2018-04-12T08:32:46.323Z,18.05
2018-04-12T08:37:48.923Z,17.92
2018-04-12T08:42:51.439Z,18.67
2018-04-12T08:47:54.041Z,18.28
2018-04-12T08:52:56.661Z,18.82
2018-04-12T08:57:59.153Z,18.88
2018-04-12T09:03:01.660Z,19.30
2018-04-12T09:08:04.138Z,18.89
2018-04-12T09:13:06.620Z,18.41
2018-04-12T09:18:09.226Z,20.00
2018-04-12T09:23:11.968Z,21.90
2018-04-12T09:28:14.753Z,22.57
2018-04-12T09:33:17.387Z,22.35
2018-04-12T09:38:19.828Z,20.68
2018-04-12T09:43:22.303Z,22.00
2018-04-12T09:48:24.751Z,22.22
2018-04-12T09:53:27.233Z,23.22
2018-04-12T09:58:30.052Z,23.40
2018-04-12T10:03:32.988Z,21.68
2018-04-12T10:08:35.473Z,21.29
2018-04-12T10:13:38.099Z,21.07
2018-04-12T10:18:40.683Z,21.39
2018-04-12T10:23:43.254Z,22.13
2018-04-12T10:28:45.798Z,21.92
2018-04-12T10:33:48.401Z,21.65
2018-04-12T10:38:50.992Z,22.21
2018-04-12T10:43:53.549Z,22.72
2018-04-12T10:48:56.121Z,23.73
2018-04-12T10:53:58.592Z,24.36
2018-04-12T10:59:01.073Z,24.73
2018-04-12T11:04:03.568Z,24.56
2018-04-12T11:09:06.044Z,24.70
2018-04-12T11:14:08.555Z,24.39
2018-04-12T11:19:11.245Z,24.86
2018-04-12T11:24:13.890Z,24.29
2018-04-12T11:29:17.476Z,24.61
2018-04-12T11:34:21.336Z,25.06
2018-04-12T11:39:24.051Z,24.81
2018-04-12T11:44:26.648Z,24.43
2018-04-12T11:49:29.119Z,24.57
2018-04-12T11:54:31.598Z,24.40
2018-04-12T11:59:34.241Z,24.53
2018-04-12T12:04:36.747Z,25.16
2018-04-12T12:09:39.260Z,25.02
2018-04-12T12:14:41.707Z,24.87
2018-04-12T12:19:44.511Z,24.73
2018-04-12T12:24:47.315Z,24.10
2018-04-12T12:29:49.838Z,24.24
2018-04-12T12:34:52.352Z,24.67
2018-04-12T12:39:54.864Z,25.31
2018-04-12T12:44:57.339Z,24.20
2018-04-12T12:49:59.830Z,25.17
2018-04-12T12:55:02.465Z,25.52
2018-04-12T13:00:04.944Z,25.20
2018-04-12T13:05:07.852Z,25.49
2018-04-12T13:10:10.335Z,25.45
2018-04-12T13:15:12.815Z,25.77
2018-04-12T13:20:15.328Z,25.36
2018-04-12T13:25:17.899Z,25.48
2018-04-12T13:30:20.413Z,26.51
2018-04-12T13:35:22.916Z,26.40
2018-04-12T13:40:25.419Z,26.65
2018-04-12T13:45:27.896Z,27.31
2018-04-12T13:50:30.372Z,27.53
2018-04-12T13:55:32.830Z,27.83
2018-04-12T14:00:35.298Z,27.35
2018-04-12T14:05:37.789Z,26.88
2018-04-12T14:10:40.267Z,26.95
2018-04-12T14:15:42.826Z,27.13
2018-04-12T14:20:45.397Z,26.60
2018-04-12T14:25:47.968Z,26.42
2018-04-12T14:30:50.499Z,26.50
2018-04-12T14:35:53.013Z,26.51
2018-04-12T14:40:55.498Z,26.76
2018-04-12T14:45:58.808Z,26.69
2018-04-12T14:51:01.322Z,26.64
2018-04-12T14:56:03.804Z,26.31
2018-04-12T15:01:06.284Z,26.49
2018-04-12T15:06:10.848Z,26.28
2018-04-12T15:11:13.441Z,25.85
2018-04-12T15:16:16.029Z,25.33
2018-04-12T15:21:18.540Z,25.05
2018-04-12T15:26:21.027Z,24.96
2018-04-12T15:31:23.564Z,24.83
2018-04-12T15:36:26.028Z,24.81
2018-04-12T15:41:28.490Z,24.67
2018-04-12T15:46:30.959Z,24.61
2018-04-12T15:51:33.422Z,24.53
2018-04-12T15:56:35.946Z,24.65
2018-04-12T16:01:38.431Z,24.39
2018-04-12T16:06:40.889Z,24.30
2018-04-12T16:11:43.418Z,24.29
2018-04-12T16:16:45.941Z,24.50
2018-04-12T16:21:48.533Z,24.29
2018-04-12T16:26:51.041Z,24.01
2018-04-12T16:31:53.522Z,23.68
2018-04-12T16:36:55.985Z,23.49
2018-04-12T16:41:58.477Z,23.36
2018-04-12T16:47:00.968Z,23.20
2018-04-12T16:52:03.442Z,22.97
2018-04-12T16:57:05.910Z,22.65
2018-04-12T17:02:08.417Z,22.37
2018-04-12T17:07:10.889Z,22.15
2018-04-12T17:12:13.553Z,21.95
2018-04-12T17:17:16.101Z,21.77
2018-04-12T17:22:18.954Z,21.63
2018-04-12T17:27:21.431Z,21.50
2018-04-12T17:32:23.938Z,21.37
2018-04-12T17:37:29.166Z,21.21
2018-04-12T17:42:31.832Z,21.11
2018-04-12T17:47:34.320Z,21.04
2018-04-12T17:52:36.807Z,20.90
2018-04-12T17:57:39.312Z,20.77
2018-04-12T18:02:41.800Z,20.75
2018-04-12T18:07:44.375Z,20.60
2018-04-12T18:12:46.924Z,20.59
2018-04-12T18:17:49.446Z,20.42
2018-04-12T18:22:51.935Z,20.33
2018-04-12T18:27:54.413Z,20.30
2018-04-12T18:32:56.882Z,20.24
2018-04-12T18:37:59.373Z,20.17
2018-04-12T18:43:01.885Z,20.07
2018-04-12T18:48:04.388Z,20.01
2018-04-12T18:53:06.874Z,19.90
2018-04-12T18:58:09.382Z,19.88
2018-04-12T19:03:11.872Z,19.77
2018-04-12T19:08:14.720Z,19.73
2018-04-12T19:13:17.277Z,19.60
2018-04-12T19:18:19.998Z,19.55
2018-04-12T19:23:22.486Z,19.52
2018-04-12T19:28:26.240Z,19.36
2018-04-12T19:33:28.786Z,19.28
2018-04-12T19:38:31.299Z,19.23
2018-04-12T19:43:33.863Z,19.08
2018-04-12T19:48:36.313Z,19.13
2018-04-12T19:53:38.809Z,19.04
2018-04-12T19:58:41.283Z,19.01
2018-04-12T20:03:43.860Z,18.89
2018-04-12T20:08:46.368Z,18.83
2018-04-12T20:13:48.917Z,18.67
2018-04-12T20:18:51.424Z,18.57
2018-04-12T20:23:53.921Z,18.59
2018-04-12T20:28:56.393Z,18.61
2018-04-12T20:33:58.950Z,18.50
2018-04-12T20:39:01.414Z,18.36
2018-04-12T20:44:03.903Z,18.28
2018-04-12T20:49:06.399Z,18.21
2018-04-12T20:54:08.868Z,18.16
2018-04-12T20:59:11.353Z,18.16
2018-04-12T21:04:14.515Z,18.09
2018-04-12T21:09:17.130Z,17.96
2018-04-12T21:14:19.675Z,17.91
2018-04-12T21:19:22.208Z,17.82
2018-04-12T21:24:24.691Z,17.67
2018-04-12T21:29:27.174Z,17.65
2018-04-12T21:34:29.662Z,17.70
2018-04-12T21:39:32.238Z,17.66
2018-04-12T21:44:34.708Z,17.60
2018-04-12T21:49:37.222Z,17.50
2018-04-12T21:54:39.720Z,17.41
2018-04-12T21:59:42.211Z,17.35
2018-04-12T22:04:44.735Z,17.33
2018-04-12T22:09:47.318Z,17.38
2018-04-12T22:14:49.854Z,17.33
2018-04-12T22:19:52.391Z,17.25
2018-04-12T22:24:54.932Z,17.19
2018-04-12T22:29:57.396Z,17.29
2018-04-12T22:34:59.855Z,17.17
2018-04-12T22:40:02.403Z,17.23
2018-04-12T22:45:04.868Z,17.31
2018-04-12T22:50:07.347Z,17.34
2018-04-12T22:55:10.261Z,17.29
2018-04-12T23:00:13.710Z,17.34
2018-04-12T23:05:16.286Z,17.35
2018-04-12T23:10:18.811Z,17.23
2018-04-12T23:15:21.523Z,17.31
2018-04-12T23:20:24.035Z,17.30
2018-04-12T23:25:26.520Z,17.19
2018-04-12T23:30:29.020Z,17.16
2018-04-12T23:35:31.513Z,17.23
2018-04-12T23:40:34.035Z,17.20
2018-04-12T23:45:36.532Z,17.28
2018-04-12T23:50:39.006Z,17.25
2018-04-12T23:55:41.501Z,17.33
